Meteo Giornale » Osservazioni meteo Italia » Bergamo-Orio Al Serio

ore: 02:50 - Osservazioni Meteo Bergamo-Orio Al Serio
Lat. 45° 40' N Lon. 9° 42' E Alt. 238 metri s.l.m.

sereno Europe/Rome

2 °C

Sereno

Temp. 24 Ore

2 °C

12 °C

Ovest

22.2 Km/h

Dew point -6 °C

Umidità 55 %

Visibilità  10 Km

Il sole sorge alle ore 07:54

Il sole tramonta alle ore 17:09

Data e Ora Cielo e Fenomeni T °C DP °C Um. % Pres. hPa Vis. km Vento km/h
Oggi h: 02:50 sereno Sereno 2 -6 55 1014 10 O 22.2
Oggi h: 02:20 sereno Sereno 2 -7 51 1014 10 O 16.7
Oggi h: 01:50 sereno Sereno 5 -9 35 1014 10 NO 13
Oggi h: 01:20 sereno Sereno 6 -9 33 1015 10 NO 18.5
Oggi h: 00:50 sereno Sereno 6 -9 33 1014 10 N/NO 16.7
Oggi h: 00:20 sereno Sereno 5 -9 35 1014 10 N/NO 22.2
Ieri h: 23:50 sereno Sereno 3 -8 44 1015 10 N/NO 16.7
Ieri h: 23:20 sereno Sereno 3 -7 47 1015 10 O 11.1
Ieri h: 22:50 sereno Sereno 4 -8 41 1015 10 NO 9.3
Ieri h: 22:20 sereno Sereno 3 -7 47 1014 10 O 18.5
Ieri h: 21:50 sereno Sereno 3 -8 44 1014 10 O/NO 16.7
Ieri h: 21:20 sereno Sereno 3 -8 44 1014 10 O/NO 13
Ieri h: 20:50 sereno Sereno 3 -8 44 1013 10 O 16.7
Ieri h: 20:20 sereno Sereno 5 -9 35 1013 10 O 20.3
Ieri h: 19:50 sereno Sereno 4 -9 38 1012 10 O 18.5
Ieri h: 19:20 sereno Sereno 5 -9 35 1012 10 O 22.2
Ieri h: 18:50 sereno Sereno 6 -10 30 1011 10 O 22.2
Ieri h: 18:20 poco_nuvoloso Poco Nuvoloso 6 -10 30 1011 10 O 25.9
Ieri h: 17:50 poco_nuvoloso Poco Nuvoloso 7 -11 26 1010 10 O/NO 24
Ieri h: 17:20 poco_nuvoloso Poco Nuvoloso 6 -9 33 1010 10 O/NO 22.2
Ieri h: 16:50 poco_nuvoloso Poco Nuvoloso 7 -8 33 1009 10 O/NO 25.9
Ieri h: 16:20 poco_nuvoloso Poco Nuvoloso 7 -6 38 1009 10 O/NO 27.8
Ieri h: 15:50 poco_nuvoloso Poco Nuvoloso 8 -7 33 1008 10 NO 24
Ieri h: 15:20 nuvoloso Nuvoloso 8 -4 42 1007 10 O/NO 25.9
Ieri h: 14:50 molto_nuvoloso Molto Nuvoloso 9 -8 29 1006 10 O/NO 40.7
Ieri h: 14:20 nuvoloso Nuvoloso 11 -10 21 1005 10 O/NO 33.3
Ieri h: 13:50 nuvoloso Nuvoloso 11 -9 23 1004 10 O/NO 35.2
Ieri h: 13:20 nuvoloso Nuvoloso 11 -9 23 1004 10 O/NO 35.2
Ieri h: 12:50 nuvoloso Nuvoloso 11 -10 21 1003 10 O/NO 40.7
Ieri h: 12:20 poco_nuvoloso Poco Nuvoloso 12 -9 22 1003 10 O/NO 35.2
Ieri h: 11:50 poco_nuvoloso Poco Nuvoloso 11 -9 23 1002 10 O/NO 35.2
Ieri h: 11:20 poco_nuvoloso Poco Nuvoloso 11 -5 32 1002 10 O/NO 38.8
Ieri h: 10:50 poco_nuvoloso Poco Nuvoloso 9 -0 53 1002 10 O 16.7
Ieri h: 10:20 poco_nuvoloso Poco Nuvoloso 5 2 80 1002 10 O 20.3
Ieri h: 09:50 poco_nuvoloso Poco Nuvoloso 5 2 80 1001 8 O 20.3
Ieri h: 09:20 foschia Foschia 3 2 93 1000 5 O/NO 14.8
Ieri h: 08:50 foschia Foschia 3 2 93 1000 2 O 20.3
Ieri h: 08:20 foschia Foschia 3 2 93 999 2 O/NO 11.1
Ieri h: 07:50 nebbia Nebbia 3 2 93 1000 0.9 O/NO 11.1
Ieri h: 07:20 foschia Foschia 3 2 93 1000 1 O 16.7
Ieri h: 06:50 foschia Foschia 3 2 93 999 2 SO 9.3
Ieri h: 06:20 foschia Foschia 3 2 93 998 1 SO 7.4
Ieri h: 05:50 foschia Foschia 3 2 93 999 1 N 5.5
Ieri h: 05:20 foschia Foschia 3 2 93 999 1 N 5.5
Ieri h: 04:50 foschia Foschia 3 2 93 999 1 N 5.5
Ieri h: 04:20 foschia Foschia 3 2 93 1000 1 N 3.7
Ieri h: 03:50 foschia Foschia 3 2 93 999 1 N 3.7
Ieri h: 03:20 foschia Foschia 3 2 93 999 2 N 5.5
Ieri h: 02:50 foschia Foschia 3 2 93 1000 2 NE 9.3